Jardim de Piranhas, Brazil
Current Conditions -  °F | °C
As of 6:00 PM on Thursday 18 Dec 2014 (Local Time) from SBMS Reporting Station
Few Clouds Few Clouds  
Wind Chill: 84°   Ceiling: Unl
Heat Index: 88°   Visibility: 6mi
Dew Point: 70°   Wind: 15mph
Humidity: 62%   Direction: 30°NNE
Pressure: 29.83"   Gusts: NA
Location:  6.38°S, 37.35°W
Report Text: SBMS 182100Z 03013KT 9999 FEW030 29/21 Q1010
Loading
Personal Weather Stations






























Interactive Weather Map New forecast layout! Learn more

10-Day Weather Forecast

Advertisements
Track Severe Weather on mobile